Time;durP1;ratioP1;P1;durP2;ratioP2;P2;SDS_P1;SDS_P2;PMS_P1;PMS_P2;Temp;Humidity;BMP_temperature;BMP_pressure;BME280_temperature;BME280_humidity;BME280_pressure;Samples;Min_cycle;Max_cycle;Signal;HPM_P1;HPM_P2
2022/04/14 00:00:41;;;;;;;11.93;6.20;;;;;;;;;;5026029;28;20205;-80
2022/04/14 00:03:08;;;;;;;13.80;6.33;;;;;;;;;;5013049;28;20198;-78
2022/04/14 00:05:36;;;;;;;34.13;13.20;;;;;;;;;;5019347;28;20226;-80
2022/04/14 00:08:04;;;;;;;30.80;12.20;;;;;;;;;;5033004;28;20683;-79
2022/04/14 00:10:31;;;;;;;28.60;10.67;;;;;;;;;;5022489;28;20230;-78
2022/04/14 00:12:59;;;;;;;25.40;10.90;;;;;;;;;;5012172;28;20211;-80
2022/04/14 00:15:28;;;;;;;25.00;10.03;;;;;;;;;;5020431;28;20269;-81
2022/04/14 00:17:55;;;;;;;21.73;9.63;;;;;;;;;;5011186;28;20755;-81
2022/04/14 00:20:23;;;;;;;25.10;9.73;;;;;;;;;;5015719;28;20250;-81
2022/04/14 00:22:51;;;;;;;21.70;8.53;;;;;;;;;;5022748;28;20203;-79
2022/04/14 00:25:19;;;;;;;17.63;7.77;;;;;;;;;;5022773;23;20246;-63
2022/04/14 00:27:46;;;;;;;20.67;8.57;;;;;;;;;;4995003;28;20281;-63
2022/04/14 00:30:13;;;;;;;18.17;7.63;;;;;;;;;;5010900;28;20648;-63
2022/04/14 00:32:41;;;;;;;15.03;7.30;;;;;;;;;;4998908;28;20225;-63
2022/04/14 00:35:08;;;;;;;15.10;7.30;;;;;;;;;;5002747;28;20202;-63
2022/04/14 00:37:36;;;;;;;14.33;6.50;;;;;;;;;;5003977;28;20207;-63
2022/04/14 00:40:05;;;;;;;14.90;6.43;;;;;;;;;;5020973;28;20306;-63
2022/04/14 00:42:32;;;;;;;11.57;6.30;;;;;;;;;;5015255;28;20206;-63
2022/04/14 00:45:00;;;;;;;14.07;5.57;;;;;;;;;;5012249;28;20206;-63
2022/04/14 00:47:29;;;;;;;12.50;6.10;;;;;;;;;;5011525;28;20222;-62
2022/04/14 00:49:56;;;;;;;12.67;5.97;;;;;;;;;;5010805;28;20227;-63
2022/04/14 00:52:25;;;;;;;15.23;6.87;;;;;;;;;;5004525;28;20211;-63
2022/04/14 00:54:52;;;;;;;13.83;6.67;;;;;;;;;;5020439;28;22714;-62
2022/04/14 00:57:20;;;;;;;10.83;6.23;;;;;;;;;;5000140;28;20202;-64
2022/04/14 00:59:47;;;;;;;14.10;6.53;;;;;;;;;;5000957;28;20261;-65
2022/04/14 01:02:15;;;;;;;14.40;6.97;;;;;;;;;;5001129;28;20215;-64
2022/04/14 01:04:42;;;;;;;9.43;5.80;;;;;;;;;;4994710;28;20321;-64
2022/04/14 01:07:10;;;;;;;13.00;6.23;;;;;;;;;;5015410;28;20238;-63
2022/04/14 01:09:37;;;;;;;11.70;5.97;;;;;;;;;;4998050;28;20256;-64
2022/04/14 01:12:05;;;;;;;10.63;5.80;;;;;;;;;;5014606;28;20207;-63
2022/04/14 01:14:37;;;;;;;11.37;6.50;;;;;;;;;;5001195;28;20219;-63
2022/04/14 01:17:06;;;;;;;7.87;5.73;;;;;;;;;;5013657;28;20746;-63
2022/04/14 01:19:37;;;;;;;10.17;5.93;;;;;;;;;;5008806;28;20214;-64
2022/04/14 01:22:19;;;;;;;9.17;5.80;;;;;;;;;;5009727;28;20206;-64
2022/04/14 01:24:47;;;;;;;10.07;5.97;;;;;;;;;;5021027;28;20227;-64
2022/04/14 01:27:15;;;;;;;11.60;5.90;;;;;;;;;;5005888;28;20426;-63
2022/04/14 01:29:46;;;;;;;9.93;5.77;;;;;;;;;;5032242;28;20593;-64
2022/04/14 01:32:13;;;;;;;10.27;5.77;;;;;;;;;;5010302;28;20207;-63
2022/04/14 01:34:41;;;;;;;6.13;4.90;;;;;;;;;;5006093;28;20237;-64
2022/04/14 01:37:08;;;;;;;9.77;5.80;;;;;;;;;;5001270;28;20199;-63
2022/04/14 01:39:35;;;;;;;8.87;5.27;;;;;;;;;;5008619;28;20207;-64
2022/04/14 01:42:03;;;;;;;8.20;5.70;;;;;;;;;;5016184;28;20263;-64
2022/04/14 01:44:31;;;;;;;10.97;5.67;;;;;;;;;;5001300;28;20650;-63
2022/04/14 01:46:58;;;;;;;7.80;5.50;;;;;;;;;;5013568;28;20204;-64
2022/04/14 01:49:25;;;;;;;8.13;4.80;;;;;;;;;;4997455;28;20235;-64
2022/04/14 01:51:53;;;;;;;8.87;4.40;;;;;;;;;;4995215;28;20210;-64
2022/04/14 01:54:20;;;;;;;4.97;4.27;;;;;;;;;;4999944;28;20237;-63
2022/04/14 01:56:49;;;;;;;7.33;4.20;;;;;;;;;;5003767;28;20222;-65
2022/04/14 01:59:16;;;;;;;11.80;7.20;;;;;;;;;;5008412;28;22379;-62
2022/04/14 02:01:44;;;;;;;10.83;6.50;;;;;;;;;;5012460;28;20583;-62
2022/04/14 02:04:11;;;;;;;4.90;4.33;;;;;;;;;;4997167;28;20244;-64
2022/04/14 02:06:39;;;;;;;6.47;4.50;;;;;;;;;;4996253;28;20254;-62
2022/04/14 02:09:06;;;;;;;4.80;3.77;;;;;;;;;;5014385;28;20226;-64
2022/04/14 02:11:34;;;;;;;6.87;4.00;;;;;;;;;;5002172;28;20293;-64
2022/04/14 02:14:02;;;;;;;8.30;3.60;;;;;;;;;;5014678;28;21132;-64
2022/04/14 02:16:29;;;;;;;7.57;4.13;;;;;;;;;;5011421;28;20198;-63
2022/04/14 02:18:56;;;;;;;6.27;4.03;;;;;;;;;;4996343;28;20265;-63
2022/04/14 02:21:24;;;;;;;6.77;3.80;;;;;;;;;;5011659;28;20208;-64
2022/04/14 02:23:51;;;;;;;8.77;4.17;;;;;;;;;;5016157;28;20243;-64
2022/04/14 02:26:19;;;;;;;8.80;4.30;;;;;;;;;;5016612;28;20806;-64
2022/04/14 02:28:47;;;;;;;6.77;4.30;;;;;;;;;;5012021;28;20203;-64
2022/04/14 02:31:14;;;;;;;5.37;4.07;;;;;;;;;;5001025;28;20238;-64
2022/04/14 02:33:42;;;;;;;6.17;4.33;;;;;;;;;;5006575;28;20230;-64
2022/04/14 02:36:09;;;;;;;7.53;4.10;;;;;;;;;;4998493;28;20798;-63
2022/04/14 02:38:37;;;;;;;6.27;4.03;;;;;;;;;;4999880;28;20253;-64
2022/04/14 02:41:04;;;;;;;10.97;4.93;;;;;;;;;;5017079;28;20383;-63
2022/04/14 02:43:32;;;;;;;6.57;4.03;;;;;;;;;;4998900;28;20239;-64
2022/04/14 02:45:59;;;;;;;11.67;6.30;;;;;;;;;;4997774;28;20678;-63
2022/04/14 02:48:27;;;;;;;11.10;5.10;;;;;;;;;;4995828;28;20211;-64
2022/04/14 02:50:54;;;;;;;8.73;4.33;;;;;;;;;;4998669;28;20626;-63
2022/04/14 02:53:22;;;;;;;10.30;4.83;;;;;;;;;;4998337;28;20223;-64
2022/04/14 02:55:49;;;;;;;7.07;4.50;;;;;;;;;;5013354;28;20266;-64
2022/04/14 02:58:17;;;;;;;8.63;5.10;;;;;;;;;;5002030;28;20218;-62
2022/04/14 03:00:44;;;;;;;9.43;5.93;;;;;;;;;;5008277;28;21793;-62
2022/04/14 03:03:11;;;;;;;10.13;6.43;;;;;;;;;;5001440;28;20230;-62
2022/04/14 03:05:39;;;;;;;10.00;5.60;;;;;;;;;;5005849;28;20310;-62
2022/04/14 03:08:06;;;;;;;11.30;5.50;;;;;;;;;;5028303;28;20686;-63
2022/04/14 03:10:34;;;;;;;9.60;4.70;;;;;;;;;;5021930;28;20719;-63
2022/04/14 03:13:01;;;;;;;10.77;4.87;;;;;;;;;;5006616;28;20284;-62
2022/04/14 03:15:29;;;;;;;11.07;4.47;;;;;;;;;;5006051;28;20253;-63
2022/04/14 03:17:57;;;;;;;6.57;3.70;;;;;;;;;;5016105;28;20229;-63
2022/04/14 03:20:25;;;;;;;6.20;4.03;;;;;;;;;;5025166;28;20222;-63
2022/04/14 03:22:53;;;;;;;5.23;3.70;;;;;;;;;;5006229;28;20206;-63
2022/04/14 03:25:21;;;;;;;7.37;4.63;;;;;;;;;;5022012;28;20223;-65
2022/04/14 03:27:49;;;;;;;10.10;5.93;;;;;;;;;;4999321;28;20253;-63
2022/04/14 03:30:16;;;;;;;12.63;4.83;;;;;;;;;;4999633;28;20779;-64
2022/04/14 03:32:47;;;;;;;9.40;5.50;;;;;;;;;;5017076;28;20199;-64
2022/04/14 03:35:15;;;;;;;7.97;4.60;;;;;;;;;;5008215;28;20199;-63
2022/04/14 03:37:43;;;;;;;7.53;4.00;;;;;;;;;;5022686;28;20648;-64
2022/04/14 03:40:10;;;;;;;7.37;3.93;;;;;;;;;;5025751;28;20226;-63
2022/04/14 03:42:38;;;;;;;6.93;4.23;;;;;;;;;;5001643;28;20222;-63
2022/04/14 03:45:06;;;;;;;6.53;3.80;;;;;;;;;;4997957;28;20265;-63
2022/04/14 03:47:33;;;;;;;7.83;4.60;;;;;;;;;;5020956;28;20209;-63
2022/04/14 03:50:01;;;;;;;7.17;4.40;;;;;;;;;;5007859;28;20774;-64
2022/04/14 03:52:28;;;;;;;9.27;4.77;;;;;;;;;;5005273;28;20202;-65
2022/04/14 03:54:57;;;;;;;10.30;4.03;;;;;;;;;;5012025;28;20281;-64
2022/04/14 03:57:25;;;;;;;5.17;4.03;;;;;;;;;;5006700;28;20770;-64
2022/04/14 03:59:52;;;;;;;7.53;4.47;;;;;;;;;;4995088;28;20669;-65
2022/04/14 04:02:20;;;;;;;9.67;4.10;;;;;;;;;;5005617;28;20696;-64
2022/04/14 04:04:47;;;;;;;8.30;4.43;;;;;;;;;;5015160;28;20229;-64
2022/04/14 04:07:15;;;;;;;9.87;4.07;;;;;;;;;;5010602;28;20894;-64
2022/04/14 04:09:42;;;;;;;7.40;4.13;;;;;;;;;;5009357;28;20227;-64
2022/04/14 04:12:10;;;;;;;8.87;3.67;;;;;;;;;;5013899;28;20255;-64
2022/04/14 04:14:37;;;;;;;10.03;4.10;;;;;;;;;;5009651;28;20223;-64
2022/04/14 04:17:05;;;;;;;8.07;4.27;;;;;;;;;;5002027;28;20336;-64
2022/04/14 04:19:32;;;;;;;6.77;4.00;;;;;;;;;;5018954;28;20202;-64
2022/04/14 04:22:00;;;;;;;7.70;4.00;;;;;;;;;;5015462;28;20206;-64
2022/04/14 04:24:27;;;;;;;8.43;5.23;;;;;;;;;;4996517;28;20637;-64
2022/04/14 04:26:54;;;;;;;8.93;4.57;;;;;;;;;;5012457;28;20235;-64
2022/04/14 04:29:22;;;;;;;8.70;4.40;;;;;;;;;;5018198;28;20274;-64
2022/04/14 04:31:50;;;;;;;7.23;4.40;;;;;;;;;;5012468;28;20200;-64
2022/04/14 04:34:18;;;;;;;7.97;4.30;;;;;;;;;;5001893;28;20234;-65
2022/04/14 04:36:45;;;;;;;8.93;5.17;;;;;;;;;;4997037;28;20226;-64
2022/04/14 04:39:12;;;;;;;12.30;6.13;;;;;;;;;;5018408;28;20222;-63
2022/04/14 04:41:40;;;;;;;10.30;5.73;;;;;;;;;;5015449;28;20206;-65
2022/04/14 04:44:09;;;;;;;12.37;6.47;;;;;;;;;;5010743;28;20231;-64
2022/04/14 04:46:37;;;;;;;9.53;6.50;;;;;;;;;;5006243;28;20269;-65
2022/04/14 04:49:04;;;;;;;21.40;12.47;;;;;;;;;;5012610;28;20212;-66
2022/04/14 04:51:31;;;;;;;17.70;10.37;;;;;;;;;;4997722;28;20231;-63
2022/04/14 04:53:59;;;;;;;11.63;8.57;;;;;;;;;;5009731;28;20742;-63
2022/04/14 04:56:26;;;;;;;17.87;8.30;;;;;;;;;;5018767;28;20215;-64
2022/04/14 04:58:54;;;;;;;13.03;6.80;;;;;;;;;;5007425;28;20199;-63
2022/04/14 05:01:21;;;;;;;9.60;6.23;;;;;;;;;;5020162;28;20215;-63
2022/04/14 05:03:49;;;;;;;10.87;5.33;;;;;;;;;;5001763;28;20222;-64
2022/04/14 05:06:17;;;;;;;9.77;4.97;;;;;;;;;;5023604;28;20711;-63
2022/04/14 05:08:46;;;;;;;9.20;5.23;;;;;;;;;;5006081;28;20199;-64
2022/04/14 05:11:15;;;;;;;9.47;5.03;;;;;;;;;;5005500;28;20234;-64
2022/04/14 05:13:42;;;;;;;12.27;4.90;;;;;;;;;;5003840;28;20277;-63
2022/04/14 05:16:10;;;;;;;7.67;5.20;;;;;;;;;;5016331;28;20246;-63
2022/04/14 05:18:39;;;;;;;9.10;4.70;;;;;;;;;;4989639;28;20794;-64
2022/04/14 05:21:06;;;;;;;9.70;5.47;;;;;;;;;;4995154;28;20215;-64
2022/04/14 05:23:33;;;;;;;9.40;5.77;;;;;;;;;;5007527;28;21950;-64
2022/04/14 05:26:01;;;;;;;12.67;5.73;;;;;;;;;;5021712;28;20213;-64
2022/04/14 05:28:28;;;;;;;16.63;10.53;;;;;;;;;;5005148;28;20298;-63
2022/04/14 05:30:56;;;;;;;15.00;9.20;;;;;;;;;;5003481;28;20235;-64
2022/04/14 05:33:23;;;;;;;12.30;7.17;;;;;;;;;;5003714;28;20219;-64
2022/04/14 05:35:51;;;;;;;7.90;5.83;;;;;;;;;;5001131;28;20205;-63
2022/04/14 05:38:18;;;;;;;13.23;6.20;;;;;;;;;;5020706;28;20209;-64
2022/04/14 05:40:46;;;;;;;6.53;5.87;;;;;;;;;;5021979;28;20653;-65
2022/04/14 05:43:21;;;;;;;10.20;5.77;;;;;;;;;;5005566;28;20241;-64
2022/04/14 05:45:49;;;;;;;8.17;4.73;;;;;;;;;;5021561;28;20207;-63
2022/04/14 05:48:17;;;;;;;7.53;4.33;;;;;;;;;;4996806;28;20235;-63
2022/04/14 05:50:45;;;;;;;10.00;5.10;;;;;;;;;;5018478;28;20227;-64
2022/04/14 05:53:13;;;;;;;10.93;5.57;;;;;;;;;;4996489;28;20647;-63
2022/04/14 05:55:41;;;;;;;9.10;5.47;;;;;;;;;;5004202;28;20789;-64
2022/04/14 05:58:09;;;;;;;7.30;5.67;;;;;;;;;;4992779;28;20203;-63
2022/04/14 06:00:36;;;;;;;11.97;5.17;;;;;;;;;;4991967;28;20211;-64
2022/04/14 06:03:04;;;;;;;13.63;5.10;;;;;;;;;;5022259;28;20277;-64
2022/04/14 06:05:33;;;;;;;8.37;4.63;;;;;;;;;;5017844;28;20210;-64
2022/04/14 06:08:01;;;;;;;8.53;4.37;;;;;;;;;;5014005;28;20213;-64
2022/04/14 06:10:29;;;;;;;24.83;8.23;;;;;;;;;;5017126;28;20223;-64
2022/04/14 06:12:57;;;;;;;58.53;10.00;;;;;;;;;;5020577;28;20692;-64
2022/04/14 06:15:29;;;;;;;17.17;6.67;;;;;;;;;;5004570;28;20198;-64
2022/04/14 06:17:56;;;;;;;14.30;5.93;;;;;;;;;;5021032;28;20256;-64
2022/04/14 06:20:24;;;;;;;7.60;5.93;;;;;;;;;;5011408;28;20199;-64
2022/04/14 06:22:52;;;;;;;9.47;5.50;;;;;;;;;;5000505;28;20858;-64
2022/04/14 06:25:22;;;;;;;12.37;6.80;;;;;;;;;;5017332;28;20237;-64
2022/04/14 06:27:51;;;;;;;7.73;6.07;;;;;;;;;;5005082;28;20206;-65
2022/04/14 06:30:19;;;;;;;9.90;6.23;;;;;;;;;;4999486;28;20355;-64
2022/04/14 06:32:59;;;;;;;10.30;5.80;;;;;;;;;;5014013;28;20203;-64
2022/04/14 06:35:28;;;;;;;11.13;6.13;;;;;;;;;;5003068;28;20668;-64
2022/04/14 06:37:56;;;;;;;10.50;6.27;;;;;;;;;;5015146;28;20202;-64
2022/04/14 06:40:23;;;;;;;10.57;5.83;;;;;;;;;;5012052;28;20207;-64
2022/04/14 06:43:01;;;;;;;12.40;6.70;;;;;;;;;;5010261;28;20673;-64
2022/04/14 06:45:30;;;;;;;13.47;6.47;;;;;;;;;;5003959;28;20261;-64
2022/04/14 06:47:57;;;;;;;9.83;5.83;;;;;;;;;;5015256;28;20211;-64
2022/04/14 06:50:25;;;;;;;12.77;6.37;;;;;;;;;;5000180;28;20587;-64
2022/04/14 06:52:53;;;;;;;71.80;12.73;;;;;;;;;;5001671;28;20226;-64
2022/04/14 06:55:23;;;;;;;17.33;8.00;;;;;;;;;;4992177;28;20202;-63
2022/04/14 06:57:51;;;;;;;16.77;7.60;;;;;;;;;;4998288;28;20198;-63
2022/04/14 07:00:19;;;;;;;14.17;8.50;;;;;;;;;;5010706;28;20285;-63
2022/04/14 07:02:53;;;;;;;11.40;7.63;;;;;;;;;;4997618;28;20217;-64
2022/04/14 07:05:22;;;;;;;15.87;8.97;;;;;;;;;;4992694;28;20610;-64
2022/04/14 07:07:50;;;;;;;13.73;10.40;;;;;;;;;;5015934;28;20207;-64
2022/04/14 07:10:17;;;;;;;16.23;12.13;;;;;;;;;;4999666;28;20209;-64
2022/04/14 07:12:46;;;;;;;21.20;12.50;;;;;;;;;;5013121;28;20205;-63
2022/04/14 07:15:14;;;;;;;14.27;10.83;;;;;;;;;;5000609;28;20242;-64
2022/04/14 07:17:41;;;;;;;17.90;11.17;;;;;;;;;;4990340;28;20229;-62
2022/04/14 07:20:09;;;;;;;40.80;10.17;;;;;;;;;;4995592;28;20218;-63
2022/04/14 07:22:44;;;;;;;12.27;8.70;;;;;;;;;;4995527;28;20579;-65
2022/04/14 07:25:12;;;;;;;20.23;9.27;;;;;;;;;;5004810;28;20221;-64
2022/04/14 07:27:40;;;;;;;46.73;12.77;;;;;;;;;;5002840;28;20233;-64
2022/04/14 07:30:07;;;;;;;83.67;22.07;;;;;;;;;;4997715;28;20203;-64
2022/04/14 07:32:39;;;;;;;25.00;11.93;;;;;;;;;;4992719;28;20222;-66
2022/04/14 07:35:07;;;;;;;18.70;12.10;;;;;;;;;;4996000;28;20802;-62
2022/04/14 07:37:36;;;;;;;23.70;12.70;;;;;;;;;;4991541;28;20199;-63
2022/04/14 07:40:08;;;;;;;19.17;13.67;;;;;;;;;;4998892;28;20207;-64
2022/04/14 07:42:36;;;;;;;19.20;13.23;;;;;;;;;;5000660;28;20211;-63
2022/04/14 07:45:05;;;;;;;27.20;13.13;;;;;;;;;;5007129;28;20206;-64
2022/04/14 07:47:41;;;;;;;37.17;14.07;;;;;;;;;;5009870;28;20219;-63
2022/04/14 07:50:13;;;;;;;104.27;24.03;;;;;;;;;;5016629;28;20215;-64
2022/04/14 07:52:55;;;;;;;16.80;13.33;;;;;;;;;;5001581;28;20202;-62
2022/04/14 07:55:26;;;;;;;22.20;13.47;;;;;;;;;;5002549;28;20664;-62
2022/04/14 07:57:56;;;;;;;18.47;14.03;;;;;;;;;;5011603;28;20207;-63
2022/04/14 08:00:24;;;;;;;21.23;14.80;;;;;;;;;;5003803;28;20677;-63
2022/04/14 08:02:59;;;;;;;24.13;15.23;;;;;;;;;;5004060;28;20198;-63
2022/04/14 08:05:34;;;;;;;84.73;18.27;;;;;;;;;;4999615;28;20268;-62
2022/04/14 08:08:02;;;;;;;22.07;14.60;;;;;;;;;;4996900;28;20203;-63
2022/04/14 08:10:30;;;;;;;23.20;16.03;;;;;;;;;;5004760;28;20214;-63
2022/04/14 08:12:57;;;;;;;21.13;15.37;;;;;;;;;;5016083;28;20246;-64
2022/04/14 08:15:26;;;;;;;47.93;17.23;;;;;;;;;;5003596;28;20269;-64
2022/04/14 08:17:53;;;;;;;25.17;15.20;;;;;;;;;;5016006;28;20209;-64
2022/04/14 08:20:20;;;;;;;37.33;16.10;;;;;;;;;;5005894;28;20207;-64
2022/04/14 08:22:51;;;;;;;40.80;16.90;;;;;;;;;;5005574;28;20213;-64
2022/04/14 08:25:24;;;;;;;22.17;15.67;;;;;;;;;;5011636;28;20218;-64
2022/04/14 08:27:54;;;;;;;18.07;14.83;;;;;;;;;;5023556;28;20254;-63
2022/04/14 08:30:23;;;;;;;18.40;14.67;;;;;;;;;;5026032;28;20211;-63
2022/04/14 08:32:51;;;;;;;20.97;14.87;;;;;;;;;;5012830;28;20289;-64
2022/04/14 08:35:19;;;;;;;22.13;14.90;;;;;;;;;;5011690;28;20286;-64
2022/04/14 08:37:47;;;;;;;22.03;15.03;;;;;;;;;;5004083;28;20207;-64
2022/04/14 08:40:16;;;;;;;21.00;15.07;;;;;;;;;;5008252;28;20215;-63
2022/04/14 08:42:55;;;;;;;18.40;14.63;;;;;;;;;;5030506;28;20253;-64
2022/04/14 08:45:25;;;;;;;20.77;13.70;;;;;;;;;;5006997;28;20233;-62
2022/04/14 08:47:53;;;;;;;19.70;14.40;;;;;;;;;;5006092;28;20573;-65
2022/04/14 08:50:20;;;;;;;19.37;14.33;;;;;;;;;;5007390;28;20194;-64
2022/04/14 08:52:49;;;;;;;30.00;14.67;;;;;;;;;;5007638;28;20223;-64
2022/04/14 08:55:16;;;;;;;20.40;14.20;;;;;;;;;;5025105;28;20242;-64
2022/04/14 08:57:45;;;;;;;17.97;12.93;;;;;;;;;;5009705;28;20199;-64
2022/04/14 09:00:13;;;;;;;20.33;14.27;;;;;;;;;;5009962;28;20195;-64
2022/04/14 09:02:44;;;;;;;19.87;13.80;;;;;;;;;;5010304;28;20211;-64
2022/04/14 09:05:11;;;;;;;17.33;13.30;;;;;;;;;;4995894;28;20293;-64
2022/04/14 09:07:38;;;;;;;19.03;13.03;;;;;;;;;;5013396;28;20213;-64
2022/04/14 09:10:07;;;;;;;16.33;12.27;;;;;;;;;;5011869;28;20691;-64
2022/04/14 09:12:37;;;;;;;17.45;12.50;;;;;;;;;;5000781;28;20281;-64
2022/04/14 09:15:05;;;;;;;14.90;10.97;;;;;;;;;;5008611;28;20218;-65
2022/04/14 09:17:32;;;;;;;19.33;12.10;;;;;;;;;;5004856;28;20199;-64
2022/04/14 09:20:00;;;;;;;15.07;10.40;;;;;;;;;;5000914;28;20214;-63
2022/04/14 09:22:27;;;;;;;16.33;10.50;;;;;;;;;;5004878;28;20203;-63
2022/04/14 09:24:57;;;;;;;16.30;11.25;;;;;;;;;;5009587;28;20273;-63
2022/04/14 09:27:24;;;;;;;19.50;11.55;;;;;;;;;;5002803;28;20198;-64
2022/04/14 09:29:52;;;;;;;16.85;10.30;;;;;;;;;;5021044;28;20310;-63
2022/04/14 09:32:35;;;;;;;18.95;11.02;;;;;;;;;;5003150;28;20311;-63
2022/04/14 09:35:04;;;;;;;22.52;10.32;;;;;;;;;;5006419;28;20214;-64
2022/04/14 09:37:33;;;;;;;17.40;8.82;;;;;;;;;;5004620;28;20206;-63
2022/04/14 09:40:02;;;;;;;17.80;10.32;;;;;;;;;;5018078;28;20234;-65
2022/04/14 09:42:30;;;;;;;14.25;9.52;;;;;;;;;;5002839;28;20273;-63
2022/04/14 09:45:18;;;;;;;13.20;9.35;;;;;;;;;;5013747;28;20223;-63
2022/04/14 09:48:15;;;;;;;16.08;10.55;;;;;;;;;;4996051;28;20293;-64
2022/04/14 09:50:47;;;;;;;13.95;9.60;;;;;;;;;;5022896;28;20672;-64
2022/04/14 09:53:16;;;;;;;18.02;10.10;;;;;;;;;;5005212;28;20222;-64
2022/04/14 09:55:55;;;;;;;15.15;9.88;;;;;;;;;;5017613;28;20306;-64
2022/04/14 09:58:23;;;;;;;19.27;9.98;;;;;;;;;;5022912;28;20660;-64
2022/04/14 10:00:52;;;;;;;16.98;9.57;;;;;;;;;;5016241;28;20207;-64
2022/04/14 10:03:20;;;;;;;15.13;10.80;;;;;;;;;;4999209;28;20579;-63
2022/04/14 10:06:06;;;;;;;17.38;10.07;;;;;;;;;;5011544;28;20227;-64
2022/04/14 10:08:52;;;;;;;14.38;9.45;;;;;;;;;;5003492;28;20218;-64
2022/04/14 10:11:28;;;;;;;18.38;10.02;;;;;;;;;;5017256;28;20226;-63
2022/04/14 10:14:08;;;;;;;20.55;10.20;;;;;;;;;;5005687;28;20230;-64
2022/04/14 10:16:36;;;;;;;16.23;9.52;;;;;;;;;;5007389;28;20269;-63
2022/04/14 10:19:03;;;;;;;14.07;8.90;;;;;;;;;;5015523;28;20203;-65
2022/04/14 10:21:31;;;;;;;16.17;9.80;;;;;;;;;;5007948;28;20668;-64
2022/04/14 10:23:59;;;;;;;13.80;9.38;;;;;;;;;;5016754;28;20629;-63
2022/04/14 10:26:27;;;;;;;16.20;8.60;;;;;;;;;;5004439;28;20219;-65
2022/04/14 10:28:55;;;;;;;14.32;9.55;;;;;;;;;;5020878;28;20202;-64
2022/04/14 10:31:25;;;;;;;16.55;11.07;;;;;;;;;;5003095;28;20426;-64
2022/04/14 10:33:52;;;;;;;14.65;10.05;;;;;;;;;;4995570;28;20314;-65
2022/04/14 10:36:20;;;;;;;16.42;10.02;;;;;;;;;;4998111;28;20199;-65
2022/04/14 10:38:49;;;;;;;19.45;10.20;;;;;;;;;;4992490;28;20281;-65
2022/04/14 10:41:21;;;;;;;12.40;8.90;;;;;;;;;;5014743;28;20203;-64
2022/04/14 10:43:48;;;;;;;13.82;9.45;;;;;;;;;;4996608;28;20226;-64
2022/04/14 10:46:16;;;;;;;12.18;9.38;;;;;;;;;;5018505;28;20765;-63
2022/04/14 10:48:45;;;;;;;17.85;8.82;;;;;;;;;;4998677;28;20310;-65
2022/04/14 10:51:19;;;;;;;13.35;9.10;;;;;;;;;;5012119;28;20684;-64
2022/04/14 10:53:56;;;;;;;10.93;7.97;;;;;;;;;;5017567;28;20227;-64
2022/04/14 10:56:36;;;;;;;14.02;7.82;;;;;;;;;;5017971;28;20723;-63
2022/04/14 10:59:11;;;;;;;13.35;7.25;;;;;;;;;;5018086;28;20206;-64
2022/04/14 11:01:47;;;;;;;9.75;7.47;;;;;;;;;;5008308;28;20215;-63
2022/04/14 11:04:30;;;;;;;13.18;7.78;;;;;;;;;;5016573;28;20715;-64
2022/04/14 11:07:01;;;;;;;18.05;7.35;;;;;;;;;;5006557;28;20624;-64
2022/04/14 11:09:41;;;;;;;13.60;6.80;;;;;;;;;;5010237;28;20596;-63
2022/04/14 11:12:10;;;;;;;10.95;6.57;;;;;;;;;;5025187;28;20222;-63
2022/04/14 11:14:45;;;;;;;11.75;6.57;;;;;;;;;;5019391;28;20258;-63
2022/04/14 11:17:32;;;;;;;11.45;5.78;;;;;;;;;;5012314;28;20644;-64
2022/04/14 11:20:12;;;;;;;11.18;6.55;;;;;;;;;;4976805;28;20707;-64
2022/04/14 11:22:58;;;;;;;9.13;4.90;;;;;;;;;;5006246;28;20206;-63
2022/04/14 11:25:42;;;;;;;8.57;5.55;;;;;;;;;;5003473;28;20218;-65
2022/04/14 11:28:18;;;;;;;10.25;5.35;;;;;;;;;;5001667;28;20562;-64
2022/04/14 11:30:46;;;;;;;9.80;5.95;;;;;;;;;;5015092;28;20261;-65
2022/04/14 11:33:14;;;;;;;9.10;4.53;;;;;;;;;;5019411;28;20234;-66
2022/04/14 11:35:46;;;;;;;7.03;3.83;;;;;;;;;;5002645;28;20286;-65
2022/04/14 11:38:32;;;;;;;7.90;4.18;;;;;;;;;;5022218;28;20269;-64
2022/04/14 11:40:59;;;;;;;14.43;4.85;;;;;;;;;;4999337;28;20262;-63
2022/04/14 11:43:27;;;;;;;8.68;4.90;;;;;;;;;;5004825;28;20235;-62
2022/04/14 11:46:10;;;;;;;8.63;3.60;;;;;;;;;;4996188;28;20203;-64
2022/04/14 11:48:39;;;;;;;9.20;3.20;;;;;;;;;;5017805;28;20246;-64
2022/04/14 11:51:07;;;;;;;8.25;2.85;;;;;;;;;;5011588;28;20210;-64
2022/04/14 11:53:36;;;;;;;7.10;3.13;;;;;;;;;;5000537;28;20285;-64
2022/04/14 11:56:25;;;;;;;7.55;3.83;;;;;;;;;;5023264;28;21182;-65
2022/04/14 11:58:53;;;;;;;7.32;4.40;;;;;;;;;;5006281;28;20226;-64
2022/04/14 12:01:21;;;;;;;8.23;3.90;;;;;;;;;;5004096;28;20214;-64
2022/04/14 12:03:48;;;;;;;10.00;4.40;;;;;;;;;;5008371;28;20230;-64
2022/04/14 12:06:17;;;;;;;27.05;5.32;;;;;;;;;;5006371;28;20249;-64
2022/04/14 12:08:54;;;;;;;8.10;3.70;;;;;;;;;;5005972;28;20210;-62
2022/04/14 12:11:24;;;;;;;10.55;6.30;;;;;;;;;;5016656;28;20312;-64
2022/04/14 12:13:52;;;;;;;5.93;3.40;;;;;;;;;;5020189;28;20368;-63
2022/04/14 12:16:19;;;;;;;7.35;3.53;;;;;;;;;;5003767;28;20212;-64
2022/04/14 12:18:51;;;;;;;7.13;3.42;;;;;;;;;;5018342;28;20373;-64
2022/04/14 12:21:23;;;;;;;9.35;3.90;;;;;;;;;;5004921;28;20291;-64
2022/04/14 12:23:52;;;;;;;8.65;4.30;;;;;;;;;;5002920;28;20298;-64
2022/04/14 12:26:20;;;;;;;8.43;4.10;;;;;;;;;;4999014;28;20246;-64
2022/04/14 12:28:47;;;;;;;9.57;4.30;;;;;;;;;;5006551;28;20207;-64
2022/04/14 12:31:20;;;;;;;9.48;5.20;;;;;;;;;;5008054;28;20657;-65
2022/04/14 12:33:55;;;;;;;8.43;4.10;;;;;;;;;;5020483;28;20692;-64
2022/04/14 12:36:42;;;;;;;7.75;3.83;;;;;;;;;;5015496;28;20249;-64
2022/04/14 12:39:18;;;;;;;7.07;4.40;;;;;;;;;;5012670;28;20281;-64
2022/04/14 12:41:45;;;;;;;7.68;4.43;;;;;;;;;;5006922;28;20209;-64
2022/04/14 12:44:16;;;;;;;8.90;4.20;;;;;;;;;;5011247;28;20277;-64
2022/04/14 12:46:47;;;;;;;9.35;3.63;;;;;;;;;;5009978;28;20207;-64
2022/04/14 12:49:22;;;;;;;9.10;5.05;;;;;;;;;;5022175;28;20238;-64
2022/04/14 12:51:55;;;;;;;8.45;4.30;;;;;;;;;;5014447;28;21195;-64
2022/04/14 12:54:25;;;;;;;8.25;4.13;;;;;;;;;;5005128;28;20222;-64
2022/04/14 12:56:56;;;;;;;9.20;4.70;;;;;;;;;;5010628;28;20199;-64
2022/04/14 12:59:23;;;;;;;11.52;6.15;;;;;;;;;;5009532;28;20203;-64
2022/04/14 13:01:51;;;;;;;9.77;5.65;;;;;;;;;;5019494;28;20572;-64
2022/04/14 13:04:21;;;;;;;8.82;4.80;;;;;;;;;;5007676;28;20223;-64
2022/04/14 13:06:58;;;;;;;8.00;4.53;;;;;;;;;;5018827;28;20203;-64
2022/04/14 13:09:26;;;;;;;8.02;4.43;;;;;;;;;;5013390;28;20203;-63
2022/04/14 13:11:53;;;;;;;7.75;5.00;;;;;;;;;;4998560;28;20556;-64
2022/04/14 13:14:20;;;;;;;9.02;5.72;;;;;;;;;;5007082;28;20229;-62
2022/04/14 13:16:49;;;;;;;9.23;5.95;;;;;;;;;;5005719;28;20203;-63
2022/04/14 13:19:17;;;;;;;9.88;6.13;;;;;;;;;;5015272;28;20199;-63
2022/04/14 13:21:44;;;;;;;8.13;6.40;;;;;;;;;;5016891;28;20211;-64
2022/04/14 13:24:12;;;;;;;12.57;7.78;;;;;;;;;;5001716;28;20724;-63
2022/04/14 13:26:39;;;;;;;12.00;6.93;;;;;;;;;;5021813;28;20202;-64
2022/04/14 13:29:08;;;;;;;13.45;6.80;;;;;;;;;;5006331;28;20204;-64
2022/04/14 13:31:36;;;;;;;8.02;6.07;;;;;;;;;;5007905;28;20217;-63
2022/04/14 13:34:03;;;;;;;10.23;6.13;;;;;;;;;;5020187;28;20320;-64
2022/04/14 13:36:30;;;;;;;13.27;6.13;;;;;;;;;;5020316;28;20206;-64
2022/04/14 13:38:58;;;;;;;11.77;7.63;;;;;;;;;;5007501;28;20207;-64
2022/04/14 13:41:25;;;;;;;9.85;6.10;;;;;;;;;;5003946;28;20195;-64
2022/04/14 13:43:52;;;;;;;11.82;6.03;;;;;;;;;;5007727;28;20230;-64
2022/04/14 13:46:20;;;;;;;8.75;5.82;;;;;;;;;;5000881;28;20333;-64
2022/04/14 13:48:48;;;;;;;8.45;6.25;;;;;;;;;;5016921;28;20218;-63
2022/04/14 13:51:18;;;;;;;17.45;6.93;;;;;;;;;;4994965;28;20209;-64
2022/04/14 13:53:52;;;;;;;11.82;6.70;;;;;;;;;;5023218;28;20242;-64
2022/04/14 13:56:19;;;;;;;10.70;6.40;;;;;;;;;;5003927;28;20799;-64
2022/04/14 13:58:47;;;;;;;12.52;8.02;;;;;;;;;;5004349;28;20253;-64
2022/04/14 14:01:15;;;;;;;10.35;7.40;;;;;;;;;;5017053;28;21456;-65
2022/04/14 14:03:42;;;;;;;8.60;6.88;;;;;;;;;;5001424;28;20226;-63
2022/04/14 14:06:09;;;;;;;10.93;6.90;;;;;;;;;;4991372;28;20225;-63
2022/04/14 14:08:37;;;;;;;8.95;6.65;;;;;;;;;;5000817;28;20223;-63
2022/04/14 14:11:05;;;;;;;11.63;7.70;;;;;;;;;;5005795;28;20207;-64
2022/04/14 14:13:32;;;;;;;12.55;7.47;;;;;;;;;;5003324;28;20226;-65
2022/04/14 14:15:59;;;;;;;12.25;9.10;;;;;;;;;;5010937;28;20215;-64
2022/04/14 14:18:27;;;;;;;11.20;8.68;;;;;;;;;;5004094;28;20239;-65
2022/04/14 14:20:54;;;;;;;14.93;9.35;;;;;;;;;;4997773;28;20300;-63
2022/04/14 14:23:22;;;;;;;14.07;8.88;;;;;;;;;;5018332;28;20223;-63
2022/04/14 14:25:49;;;;;;;13.00;8.20;;;;;;;;;;5000822;28;20272;-65
2022/04/14 14:28:19;;;;;;;14.02;8.68;;;;;;;;;;5018653;28;20207;-63
2022/04/14 14:30:46;;;;;;;12.27;9.52;;;;;;;;;;5011568;28;20199;-65
2022/04/14 14:33:14;;;;;;;15.30;9.25;;;;;;;;;;5001617;28;20274;-63
2022/04/14 14:35:41;;;;;;;12.00;9.90;;;;;;;;;;4996486;28;20225;-64
2022/04/14 14:38:09;;;;;;;13.60;9.43;;;;;;;;;;4992354;28;20199;-62
2022/04/14 14:40:36;;;;;;;13.55;8.80;;;;;;;;;;5000327;28;20671;-64
2022/04/14 14:43:04;;;;;;;13.20;9.27;;;;;;;;;;5009607;28;20227;-63